Time;durP1;ratioP1;P1;durP2;ratioP2;P2;SDS_P1;SDS_P2;PMS_P1;PMS_P2;Temp;Humidity;BMP_temperature;BMP_pressure;BME280_temperature;BME280_humidity;BME280_pressure;Samples;Min_cycle;Max_cycle;Signal;HPM_P1;HPM_P2
2021/04/08 00:01:38;;;;;;;11.20;2.50;;;6.10;99.90;;;;;;1918810;74;21108;-66
2021/04/08 00:04:06;;;;;;;15.43;3.30;;;6.10;99.90;;;;;;1920062;74;21081;-66
2021/04/08 00:06:33;;;;;;;12.98;2.70;;;6.10;99.90;;;;;;1920995;74;21335;-65
2021/04/08 00:09:01;;;;;;;20.08;3.35;;;6.10;99.90;;;;;;1916129;74;21082;-67
2021/04/08 00:11:28;;;;;;;22.10;2.92;;;5.90;99.90;;;;;;1915222;74;21512;-66
2021/04/08 00:13:56;;;;;;;20.70;4.10;;;5.90;99.90;;;;;;1919004;74;21619;-66
2021/04/08 00:16:24;;;;;;;15.00;2.95;;;5.90;99.90;;;;;;1918829;74;21109;-65
2021/04/08 00:18:51;;;;;;;19.37;3.12;;;5.90;99.90;;;;;;1917994;74;21232;-67
2021/04/08 00:21:19;;;;;;;14.87;3.12;;;5.90;99.90;;;;;;1922484;74;21014;-66
2021/04/08 00:23:46;;;;;;;14.83;3.25;;;5.90;99.90;;;;;;1918132;74;21555;-66
2021/04/08 00:26:14;;;;;;;22.82;3.70;;;5.90;99.90;;;;;;1916352;74;21251;-65
2021/04/08 00:28:41;;;;;;;12.80;3.10;;;5.90;99.90;;;;;;1915697;74;21124;-65
2021/04/08 00:31:09;;;;;;;12.63;3.37;;;5.90;99.90;;;;;;1919215;74;21090;-67
2021/04/08 00:33:36;;;;;;;20.00;3.15;;;6.00;99.90;;;;;;1916261;74;21132;-66
2021/04/08 00:36:04;;;;;;;19.75;3.77;;;5.80;99.90;;;;;;1920975;74;21676;-65
2021/04/08 00:38:31;;;;;;;18.07;3.27;;;5.80;99.90;;;;;;1914184;74;21472;-65
2021/04/08 00:41:00;;;;;;;20.00;4.12;;;5.90;99.90;;;;;;1919307;74;21555;-65
2021/04/08 00:43:28;;;;;;;15.45;3.60;;;5.80;99.90;;;;;;1913088;74;21121;-65
2021/04/08 00:45:55;;;;;;;20.97;3.52;;;5.70;99.90;;;;;;1918105;74;21109;-66
2021/04/08 00:48:23;;;;;;;18.70;3.62;;;5.70;99.90;;;;;;1918297;74;21120;-66
2021/04/08 00:50:51;;;;;;;19.40;3.52;;;5.70;99.90;;;;;;1915145;74;21104;-66
2021/04/08 00:53:22;;;;;;;20.32;3.52;;;5.80;99.90;;;;;;1916480;74;21641;-63
2021/04/08 00:55:54;;;;;;;23.55;3.75;;;5.80;99.90;;;;;;1920349;74;21116;-66
2021/04/08 00:58:22;;;;;;;16.05;3.20;;;5.80;99.90;;;;;;1917376;74;21104;-66
2021/04/08 01:00:51;;;;;;;15.50;2.95;;;5.80;99.90;;;;;;1919075;74;21570;-65
2021/04/08 01:03:21;;;;;;;16.00;3.47;;;5.70;99.90;;;;;;1918073;74;21108;-66
2021/04/08 01:05:49;;;;;;;24.47;4.67;;;5.80;99.90;;;;;;1919794;74;21109;-66
2021/04/08 01:08:16;;;;;;;17.75;3.52;;;5.70;99.90;;;;;;1916204;74;21124;-65
2021/04/08 01:10:44;;;;;;;21.85;3.98;;;5.70;99.90;;;;;;1920429;74;21088;-66
2021/04/08 01:13:15;;;;;;;25.30;4.20;;;5.70;99.90;;;;;;1916159;74;21120;-65
2021/04/08 01:15:43;;;;;;;13.10;2.75;;;5.70;99.90;;;;;;1913674;74;21171;-64
2021/04/08 01:18:32;;;;;;;25.85;3.77;;;5.70;99.90;;;;;;1916339;74;21210;-66
2021/04/08 01:21:11;;;;;;;17.10;3.87;;;5.70;99.90;;;;;;1918268;74;21082;-66
2021/04/08 01:24:04;;;;;;;14.47;2.77;;;5.70;99.90;;;;;;1917414;74;21678;-66
2021/04/08 01:27:10;;;;;;;19.05;3.98;;;5.80;99.90;;;;;;1919376;74;21049;-66
2021/04/08 01:30:00;;;;;;;20.48;4.28;;;5.80;99.90;;;;;;1914882;74;21233;-65
2021/04/08 01:32:31;;;;;;;22.10;4.28;;;5.80;99.90;;;;;;1913730;74;21064;-66
2021/04/08 01:35:01;;;;;;;17.35;3.72;;;5.80;99.90;;;;;;1912201;74;21545;-64
2021/04/08 01:37:41;;;;;;;17.42;3.45;;;5.70;99.90;;;;;;1918480;74;21128;-64
2021/04/08 01:40:09;;;;;;;17.37;3.42;;;5.60;99.90;;;;;;1915111;74;21089;-65
2021/04/08 01:42:38;;;;;;;21.05;3.87;;;5.70;99.90;;;;;;1920046;73;21093;-65
2021/04/08 01:45:07;;;;;;;21.50;3.52;;;5.80;99.90;;;;;;1919966;74;21574;-65
2021/04/08 01:47:37;;;;;;;16.35;4.05;;;5.80;99.90;;;;;;1918807;74;21186;-65
2021/04/08 01:50:06;;;;;;;24.87;3.75;;;5.80;99.90;;;;;;1918471;74;21346;-64
2021/04/08 01:52:34;;;;;;;19.95;3.52;;;5.80;99.90;;;;;;1919597;74;21121;-65
2021/04/08 01:55:02;;;;;;;17.05;3.30;;;5.80;99.90;;;;;;1917843;74;21041;-65
2021/04/08 01:57:32;;;;;;;16.67;4.00;;;5.80;99.90;;;;;;1918448;74;21171;-65
2021/04/08 02:00:02;;;;;;;21.85;4.03;;;5.90;99.90;;;;;;1917465;74;21121;-65
2021/04/08 02:02:30;;;;;;;12.00;2.72;;;5.80;99.90;;;;;;1918645;74;21073;-65
2021/04/08 02:04:58;;;;;;;18.10;3.33;;;5.80;99.90;;;;;;1913727;74;21112;-65
2021/04/08 02:07:27;;;;;;;18.35;2.70;;;5.80;99.90;;;;;;1919300;74;21145;-64
2021/04/08 02:09:55;;;;;;;26.50;3.35;;;5.70;99.90;;;;;;1917824;74;21162;-64
2021/04/08 02:12:25;;;;;;;14.68;3.15;;;5.60;99.90;;;;;;1912878;74;21132;-65
2021/04/08 02:14:53;;;;;;;13.72;2.92;;;5.70;99.90;;;;;;1915485;74;21124;-65
2021/04/08 02:17:22;;;;;;;21.62;3.15;;;5.70;99.90;;;;;;1911821;74;21618;-64
2021/04/08 02:19:51;;;;;;;15.45;3.17;;;5.70;99.90;;;;;;1919390;74;21194;-65
2021/04/08 02:22:20;;;;;;;20.65;3.10;;;5.70;99.90;;;;;;1920373;73;21030;-66
2021/04/08 02:24:48;;;;;;;17.52;3.55;;;5.70;99.90;;;;;;1919748;74;21193;-66
2021/04/08 02:27:16;;;;;;;16.10;3.58;;;5.70;99.90;;;;;;1916276;74;21074;-65
2021/04/08 02:29:45;;;;;;;20.95;3.05;;;5.80;99.90;;;;;;1912455;74;22247;-64
2021/04/08 02:32:13;;;;;;;19.32;3.35;;;5.80;99.90;;;;;;1920797;74;21101;-65
2021/04/08 02:34:40;;;;;;;21.23;3.35;;;5.80;99.90;;;;;;1915934;74;21665;-65
2021/04/08 02:37:08;;;;;;;16.00;3.27;;;5.80;99.90;;;;;;1916935;74;21645;-66
2021/04/08 02:39:36;;;;;;;14.80;2.85;;;5.70;99.90;;;;;;1919072;74;21093;-65
2021/04/08 02:42:04;;;;;;;20.65;3.25;;;5.70;99.90;;;;;;1916404;74;21108;-66
2021/04/08 02:44:31;;;;;;;19.60;2.83;;;5.70;99.90;;;;;;1920335;74;21085;-65
2021/04/08 02:46:59;;;;;;;16.15;3.30;;;5.80;99.90;;;;;;1913916;74;22148;-64
2021/04/08 02:49:26;;;;;;;19.48;3.50;;;5.80;99.90;;;;;;1916164;74;21205;-65
2021/04/08 02:51:57;;;;;;;16.83;3.43;;;5.80;99.90;;;;;;1915640;74;21132;-65
2021/04/08 02:54:49;;;;;;;15.60;3.20;;;5.70;99.90;;;;;;1913240;74;21026;-66
2021/04/08 02:57:28;;;;;;;13.65;2.72;;;5.70;99.90;;;;;;1916807;74;21066;-65
2021/04/08 02:59:58;;;;;;;12.33;2.52;;;5.60;99.90;;;;;;1916822;74;21140;-67
2021/04/08 03:02:29;;;;;;;16.23;3.77;;;5.60;99.90;;;;;;1919396;74;21084;-68
2021/04/08 03:04:58;;;;;;;18.57;2.60;;;5.50;99.90;;;;;;1917538;74;21139;-66
2021/04/08 03:07:32;;;;;;;15.83;2.95;;;5.60;99.90;;;;;;1917446;74;21124;-64
2021/04/08 03:10:03;;;;;;;17.53;3.37;;;5.50;99.90;;;;;;1917296;74;21089;-65
2021/04/08 03:12:33;;;;;;;17.90;3.20;;;5.50;99.90;;;;;;1920319;73;21058;-65
2021/04/08 03:15:04;;;;;;;13.83;2.62;;;5.50;99.90;;;;;;1919813;74;21136;-65
2021/04/08 03:17:35;;;;;;;17.27;2.60;;;5.50;99.90;;;;;;1918235;71;21722;-70
2021/04/08 03:20:04;;;;;;;15.43;2.72;;;5.50;99.90;;;;;;1905579;74;21252;-69
2021/04/08 03:22:35;;;;;;;10.88;2.12;;;5.40;99.90;;;;;;1911653;74;21148;-70
2021/04/08 03:25:04;;;;;;;16.42;2.92;;;5.50;99.90;;;;;;1873493;76;21638;-69
2021/04/08 03:27:31;;;;;;;10.88;2.37;;;5.50;99.90;;;;;;1833698;76;21158;-69
2021/04/08 03:30:00;;;;;;;13.65;2.50;;;5.50;99.90;;;;;;1800656;78;21612;-70
2021/04/08 03:32:27;;;;;;;12.05;2.60;;;5.50;99.90;;;;;;1827031;77;21112;-69
2021/04/08 03:34:56;;;;;;;8.23;2.12;;;5.60;99.90;;;;;;1874074;75;21191;-71
2021/04/08 03:37:24;;;;;;;10.95;2.75;;;5.60;99.90;;;;;;1874270;75;21186;-69
2021/04/08 03:39:52;;;;;;;15.63;2.60;;;5.60;99.90;;;;;;1870901;75;21606;-70
2021/04/08 03:42:20;;;;;;;15.48;2.77;;;5.70;99.90;;;;;;1869102;75;21018;-70
2021/04/08 03:44:47;;;;;;;13.93;2.95;;;5.60;99.90;;;;;;1874338;75;21104;-70
2021/04/08 03:47:16;;;;;;;13.68;2.70;;;5.60;99.90;;;;;;1872087;75;21201;-70
2021/04/08 03:49:46;;;;;;;14.35;3.00;;;5.50;99.90;;;;;;1865360;75;21232;-69
2021/04/08 03:52:13;;;;;;;13.40;2.52;;;5.50;99.90;;;;;;1870834;75;21104;-69
2021/04/08 03:54:43;;;;;;;11.48;2.40;;;5.60;99.90;;;;;;1876691;75;21070;-69
2021/04/08 03:57:16;;;;;;;14.23;2.52;;;5.60;99.90;;;;;;1874909;75;21089;-69
2021/04/08 03:59:46;;;;;;;14.87;2.85;;;5.60;99.90;;;;;;1868734;75;21286;-69
2021/04/08 04:02:15;;;;;;;13.88;2.35;;;5.60;99.90;;;;;;1872808;75;21141;-69
2021/04/08 04:04:47;;;;;;;14.10;2.47;;;5.60;99.90;;;;;;1874724;75;21135;-68
2021/04/08 04:07:16;;;;;;;12.53;2.67;;;5.60;99.90;;;;;;1867717;75;21100;-69
2021/04/08 04:09:44;;;;;;;10.70;2.33;;;5.60;99.90;;;;;;1876949;75;21046;-69
2021/04/08 04:12:14;;;;;;;13.48;2.58;;;5.50;99.90;;;;;;1874943;75;21096;-69
2021/04/08 04:14:44;;;;;;;15.98;2.33;;;5.50;99.90;;;;;;1874849;75;21182;-69
2021/04/08 04:17:17;;;;;;;11.33;2.25;;;5.50;99.90;;;;;;1873789;75;21136;-69
2021/04/08 04:19:45;;;;;;;17.75;3.08;;;5.50;99.90;;;;;;1868343;74;21113;-69
2021/04/08 04:22:12;;;;;;;11.35;2.45;;;5.40;99.90;;;;;;1867955;74;21162;-69
2021/04/08 04:24:40;;;;;;;12.05;2.47;;;5.40;99.90;;;;;;1872214;74;21054;-69
2021/04/08 04:27:07;;;;;;;13.18;2.60;;;5.40;99.90;;;;;;1869141;74;21076;-69
2021/04/08 04:29:35;;;;;;;12.95;2.65;;;5.30;99.90;;;;;;1871898;74;21085;-70
2021/04/08 04:32:03;;;;;;;15.38;2.95;;;5.40;99.90;;;;;;1872304;74;21120;-69
2021/04/08 04:34:30;;;;;;;17.62;2.77;;;5.40;99.90;;;;;;1875529;74;21710;-69
2021/04/08 04:36:58;;;;;;;13.75;2.52;;;5.40;99.90;;;;;;1874060;74;21034;-69
2021/04/08 04:39:25;;;;;;;16.27;3.02;;;5.30;99.90;;;;;;1871792;74;21532;-68
2021/04/08 04:41:53;;;;;;;15.13;3.00;;;5.40;99.90;;;;;;1867513;74;21211;-68
2021/04/08 04:44:20;;;;;;;12.95;2.52;;;5.40;99.90;;;;;;1870152;74;21116;-69
2021/04/08 04:46:48;;;;;;;14.60;2.92;;;5.40;99.90;;;;;;1873727;74;21066;-68
2021/04/08 04:49:15;;;;;;;13.62;3.30;;;5.50;99.90;;;;;;1877233;74;21148;-69
2021/04/08 04:51:43;;;;;;;12.00;3.15;;;5.50;99.90;;;;;;1872431;74;21542;-69
2021/04/08 04:54:10;;;;;;;17.92;2.95;;;5.60;99.90;;;;;;1870798;74;21112;-69
2021/04/08 04:56:38;;;;;;;13.20;2.83;;;5.50;99.90;;;;;;1871820;74;21117;-69
2021/04/08 04:59:05;;;;;;;15.28;3.15;;;5.50;99.90;;;;;;1877019;74;21214;-70
2021/04/08 05:01:33;;;;;;;17.40;3.08;;;5.50;99.90;;;;;;1874512;74;21163;-70
2021/04/08 05:04:00;;;;;;;15.75;2.90;;;5.50;99.90;;;;;;1867500;74;21095;-69
2021/04/08 05:06:28;;;;;;;14.55;3.12;;;5.50;99.90;;;;;;1879756;74;21468;-68
2021/04/08 05:08:56;;;;;;;13.30;2.77;;;5.50;99.90;;;;;;1872338;74;21204;-69
2021/04/08 05:11:24;;;;;;;12.50;2.62;;;5.50;99.90;;;;;;1869818;74;21183;-69
2021/04/08 05:13:52;;;;;;;16.35;3.12;;;5.50;99.90;;;;;;1875694;74;21109;-69
2021/04/08 05:16:19;;;;;;;18.35;3.05;;;5.40;99.90;;;;;;1879600;74;21143;-69
2021/04/08 05:18:47;;;;;;;18.82;3.20;;;5.30;99.90;;;;;;1874214;74;21269;-68
2021/04/08 05:21:14;;;;;;;13.40;3.40;;;5.30;99.90;;;;;;1873018;74;21131;-68
2021/04/08 05:23:42;;;;;;;20.27;3.50;;;5.30;99.90;;;;;;1871892;74;21112;-69
2021/04/08 05:26:09;;;;;;;16.77;3.05;;;5.30;99.90;;;;;;1868774;74;21587;-68
2021/04/08 05:28:37;;;;;;;18.12;3.33;;;5.30;99.90;;;;;;1870308;74;21250;-70
2021/04/08 05:31:05;;;;;;;16.85;3.17;;;5.20;99.90;;;;;;1878361;74;21136;-70
2021/04/08 05:33:33;;;;;;;13.10;3.10;;;5.30;99.90;;;;;;1876259;74;21645;-71
2021/04/08 05:36:00;;;;;;;11.25;2.75;;;5.40;99.90;;;;;;1881590;75;21553;-72
2021/04/08 05:38:28;;;;;;;13.13;2.65;;;5.40;99.90;;;;;;1866371;75;21184;-71
2021/04/08 05:40:55;;;;;;;14.83;3.12;;;5.40;99.90;;;;;;1876167;74;21179;-68
2021/04/08 05:43:23;;;;;;;12.93;2.98;;;5.50;99.90;;;;;;1876274;74;21131;-67
2021/04/08 05:45:50;;;;;;;12.25;2.95;;;5.50;99.90;;;;;;1877540;75;21086;-68
2021/04/08 05:48:18;;;;;;;14.35;2.87;;;5.50;99.90;;;;;;1879657;74;21295;-69
2021/04/08 05:50:45;;;;;;;14.23;3.42;;;5.60;99.90;;;;;;1872202;75;21158;-69
2021/04/08 05:53:13;;;;;;;16.20;3.02;;;5.60;99.90;;;;;;1874516;75;21111;-67
2021/04/08 05:55:41;;;;;;;17.57;3.02;;;5.60;99.90;;;;;;1878389;74;21097;-71
2021/04/08 05:58:08;;;;;;;17.23;2.87;;;5.70;99.90;;;;;;1878186;74;21617;-69
2021/04/08 06:00:36;;;;;;;14.23;3.40;;;5.70;99.90;;;;;;1872814;74;21116;-69
2021/04/08 06:03:03;;;;;;;13.88;2.90;;;5.70;99.90;;;;;;1869304;75;21113;-72
2021/04/08 06:05:31;;;;;;;13.55;2.92;;;5.70;99.90;;;;;;1863957;75;21112;-70
2021/04/08 06:07:58;;;;;;;12.55;3.35;;;5.70;99.90;;;;;;1873574;75;21129;-70
2021/04/08 06:10:26;;;;;;;16.62;3.70;;;5.80;99.90;;;;;;1866995;75;21066;-71
2021/04/08 06:12:54;;;;;;;20.65;4.25;;;5.80;99.90;;;;;;1866314;75;21610;-70
2021/04/08 06:15:22;;;;;;;16.75;3.00;;;5.80;99.90;;;;;;1879666;74;21105;-69
2021/04/08 06:17:49;;;;;;;15.15;3.17;;;5.90;99.90;;;;;;1876021;75;21175;-70
2021/04/08 06:20:17;;;;;;;16.02;2.87;;;5.90;99.90;;;;;;1867248;75;21093;-70
2021/04/08 06:22:45;;;;;;;14.53;3.00;;;5.90;99.90;;;;;;1876460;74;21185;-70
2021/04/08 06:25:13;;;;;;;13.78;2.95;;;6.00;99.90;;;;;;1883946;74;21528;-71
2021/04/08 06:27:40;;;;;;;11.00;2.40;;;6.00;99.90;;;;;;1874614;75;21134;-71
2021/04/08 06:30:10;;;;;;;11.33;3.22;;;6.00;99.90;;;;;;1875462;74;21089;-71
2021/04/08 06:32:38;;;;;;;9.58;3.02;;;6.00;99.90;;;;;;1876850;74;21108;-71
2021/04/08 06:35:07;;;;;;;20.60;3.12;;;6.00;99.90;;;;;;1876967;75;21086;-71
2021/04/08 06:37:35;;;;;;;12.10;2.77;;;6.10;99.90;;;;;;1867558;74;21125;-71
2021/04/08 06:40:03;;;;;;;10.48;2.95;;;6.10;99.90;;;;;;1871192;74;21105;-71
2021/04/08 06:42:33;;;;;;;14.93;3.30;;;6.20;99.90;;;;;;1879309;74;21093;-71
2021/04/08 06:45:02;;;;;;;11.63;2.52;;;6.20;99.90;;;;;;1867651;74;21168;-71
2021/04/08 06:47:35;;;;;;;13.68;2.42;;;6.20;99.90;;;;;;1873498;74;21167;-72
2021/04/08 06:50:08;;;;;;;14.40;2.25;;;6.20;99.90;;;;;;1874190;74;21666;-71
2021/04/08 06:52:38;;;;;;;13.93;2.85;;;6.30;99.90;;;;;;1872314;74;21026;-70
2021/04/08 06:55:06;;;;;;;9.93;2.12;;;6.30;99.90;;;;;;1869070;74;21516;-70
2021/04/08 06:57:34;;;;;;;13.43;2.85;;;6.30;99.90;;;;;;1872439;74;21571;-70
2021/04/08 07:00:04;;;;;;;11.88;2.62;;;6.30;99.90;;;;;;1871469;74;21112;-71
2021/04/08 07:02:32;;;;;;;13.95;3.02;;;6.40;99.90;;;;;;1878810;74;21096;-70
2021/04/08 07:04:59;;;;;;;12.53;2.62;;;6.50;99.90;;;;;;1872722;74;21106;-69
2021/04/08 07:07:27;;;;;;;14.20;3.05;;;6.30;99.90;;;;;;1877166;74;21475;-70
2021/04/08 07:09:55;;;;;;;11.45;2.87;;;6.30;99.90;;;;;;1872057;74;21116;-70
2021/04/08 07:12:23;;;;;;;17.50;3.02;;;6.40;99.90;;;;;;1875303;74;21046;-69
2021/04/08 07:14:55;;;;;;;15.20;3.52;;;6.40;99.90;;;;;;1869602;74;21154;-70
2021/04/08 07:17:23;;;;;;;12.75;3.02;;;6.40;99.90;;;;;;1869991;74;21300;-70
2021/04/08 07:19:50;;;;;;;14.55;2.70;;;6.40;99.90;;;;;;1870966;74;21131;-69
2021/04/08 07:22:19;;;;;;;11.83;3.17;;;6.40;99.90;;;;;;1879851;74;21199;-70
2021/04/08 07:24:48;;;;;;;16.05;2.47;;;6.40;99.90;;;;;;1876817;74;21077;-70
2021/04/08 07:27:21;;;;;;;13.85;2.60;;;6.50;99.90;;;;;;1875376;74;21139;-70
2021/04/08 07:30:00;;;;;;;16.80;2.17;;;6.60;99.90;;;;;;1872861;74;21250;-69
2021/04/08 07:32:30;;;;;;;13.93;3.12;;;6.60;99.90;;;;;;1867599;74;21288;-69
2021/04/08 07:35:02;;;;;;;13.60;2.33;;;6.50;99.90;;;;;;1870874;74;21133;-69
2021/04/08 07:37:35;;;;;;;14.05;2.58;;;6.60;99.90;;;;;;1866371;74;21233;-69
2021/04/08 07:40:17;;;;;;;14.40;2.60;;;6.50;99.90;;;;;;1868655;74;21238;-69
2021/04/08 07:42:45;;;;;;;12.53;2.58;;;6.50;99.90;;;;;;1868089;74;21699;-68
2021/04/08 07:45:28;;;;;;;9.85;2.60;;;6.60;99.90;;;;;;1867673;74;21094;-68
2021/04/08 07:48:01;;;;;;;9.23;2.58;;;6.70;99.90;;;;;;1873036;74;21145;-67
2021/04/08 07:50:30;;;;;;;12.23;2.92;;;6.70;99.90;;;;;;1869452;74;21148;-69
2021/04/08 07:52:58;;;;;;;11.08;2.37;;;6.90;99.90;;;;;;1873584;74;21567;-69
2021/04/08 07:55:34;;;;;;;12.65;2.30;;;7.00;99.90;;;;;;1870415;74;21180;-69
2021/04/08 07:58:05;;;;;;;13.05;3.47;;;7.10;99.90;;;;;;1875776;74;21105;-68
2021/04/08 08:00:38;;;;;;;10.98;2.55;;;7.10;99.90;;;;;;1874575;74;21513;-69
2021/04/08 08:03:23;;;;;;;11.90;2.40;;;7.00;99.90;;;;;;1870400;74;21152;-69
2021/04/08 08:05:52;;;;;;;10.72;2.40;;;7.00;99.90;;;;;;1876735;74;21117;-71
2021/04/08 08:08:21;;;;;;;12.95;2.52;;;7.20;99.90;;;;;;1880892;74;22158;-69
2021/04/08 08:11:00;;;;;;;12.45;2.85;;;7.30;99.90;;;;;;1874345;74;21145;-69
2021/04/08 08:13:29;;;;;;;9.53;2.30;;;7.40;99.90;;;;;;1871433;74;21124;-68
2021/04/08 08:15:58;;;;;;;13.95;3.08;;;7.40;99.90;;;;;;1874773;74;21450;-68
2021/04/08 08:18:28;;;;;;;10.38;2.50;;;7.50;99.90;;;;;;1873982;74;21175;-68
2021/04/08 08:21:11;;;;;;;9.35;1.82;;;7.50;99.90;;;;;;1875486;74;21536;-70
2021/04/08 08:23:41;;;;;;;9.73;2.40;;;7.50;99.90;;;;;;1876698;74;21005;-70
2021/04/08 08:26:31;;;;;;;12.85;1.95;;;7.50;99.90;;;;;;1870061;74;21108;-70
2021/04/08 08:29:02;;;;;;;13.00;2.65;;;7.50;99.90;;;;;;1871299;74;21159;-69
2021/04/08 08:31:52;;;;;;;9.48;2.20;;;7.50;99.90;;;;;;1846232;74;21223;-70
2021/04/08 08:34:33;;;;;;;14.23;2.45;;;7.60;99.90;;;;;;1869117;74;21021;-70
2021/04/08 08:37:07;;;;;;;12.13;2.62;;;7.70;99.90;;;;;;1871231;74;22251;-70
2021/04/08 08:39:43;;;;;;;12.03;2.47;;;7.90;99.90;;;;;;1874183;74;21101;-68
2021/04/08 08:42:14;;;;;;;14.75;2.72;;;8.00;99.90;;;;;;1875901;74;21010;-68
2021/04/08 08:44:43;;;;;;;11.38;2.70;;;8.20;99.90;;;;;;1871671;74;21037;-71
2021/04/08 08:47:25;;;;;;;9.05;2.95;;;8.20;99.90;;;;;;1874882;74;21143;-69
2021/04/08 08:50:01;;;;;;;10.80;2.47;;;8.10;99.90;;;;;;1872763;74;21146;-68
2021/04/08 08:52:37;;;;;;;13.28;2.55;;;8.10;99.90;;;;;;1867148;74;21101;-68
2021/04/08 08:55:11;;;;;;;8.58;1.85;;;8.00;99.90;;;;;;1871259;74;21088;-68
2021/04/08 08:57:40;;;;;;;8.70;1.92;;;8.10;99.90;;;;;;1878779;74;21250;-69
2021/04/08 09:00:10;;;;;;;6.20;1.45;;;8.10;99.90;;;;;;1872696;74;21172;-70
2021/04/08 09:02:38;;;;;;;8.15;1.62;;;8.20;99.90;;;;;;1870903;74;21464;-70
2021/04/08 09:05:13;;;;;;;7.20;1.75;;;8.40;99.90;;;;;;1877721;74;21625;-70
2021/04/08 09:07:39;;;;;;;5.90;1.40;;;8.50;99.90;;;;;;1868991;74;21097;-69
2021/04/08 09:10:07;;;;;;;6.75;1.35;;;8.60;99.50;;;;;;1874407;74;21178;-68
2021/04/08 09:12:35;;;;;;;9.90;1.75;;;8.50;98.80;;;;;;1870528;74;21074;-69
2021/04/08 09:15:06;;;;;;;5.25;1.40;;;8.60;99.90;;;;;;1880017;74;21394;-69
2021/04/08 09:17:46;;;;;;;10.20;1.50;;;8.80;99.60;;;;;;1871281;74;21164;-68
2021/04/08 09:20:18;;;;;;;7.80;1.37;;;8.90;99.80;;;;;;1876058;74;21094;-69
2021/04/08 09:23:01;;;;;;;5.03;1.47;;;8.90;97.30;;;;;;1881922;74;21157;-69
2021/04/08 09:25:32;;;;;;;6.83;1.90;;;8.70;96.40;;;;;;1876284;74;21240;-71
2021/04/08 09:28:05;;;;;;;6.12;1.70;;;8.70;97.80;;;;;;1873914;74;21149;-69
2021/04/08 09:30:43;;;;;;;5.92;1.85;;;8.80;98.80;;;;;;1875779;74;21158;-69
2021/04/08 09:33:05;;;;;;;6.40;1.67;;;8.90;97.90;;;;;;1869693;74;21219;-70
2021/04/08 09:35:33;;;;;;;11.38;2.72;;;8.90;97.80;;;;;;1877485;74;21082;-69
2021/04/08 09:38:06;;;;;;;10.82;4.03;;;8.90;97.50;;;;;;1873572;74;21658;-70
2021/04/08 09:40:46;;;;;;;14.25;5.80;;;8.90;98.60;;;;;;1865970;74;21499;-69
2021/04/08 09:43:16;;;;;;;7.35;1.67;;;9.00;98.50;;;;;;1873770;74;21592;-70
2021/04/08 09:45:52;;;;;;;11.15;2.27;;;9.10;98.80;;;;;;1867836;74;21108;-69
2021/04/08 09:48:24;;;;;;;7.22;1.80;;;9.10;98.00;;;;;;1875518;74;21242;-69
2021/04/08 09:51:01;;;;;;;7.55;1.72;;;9.10;97.50;;;;;;1869496;74;21331;-69
2021/04/08 09:53:40;;;;;;;9.08;2.12;;;8.90;97.20;;;;;;1862888;75;21125;-69
2021/04/08 09:56:09;;;;;;;8.40;1.80;;;8.80;97.50;;;;;;1865363;75;21190;-69
2021/04/08 09:58:37;;;;;;;11.60;1.90;;;8.70;97.60;;;;;;1874102;75;21210;-69
2021/04/08 10:01:10;;;;;;;8.25;2.10;;;8.70;97.40;;;;;;1866865;75;21509;-69
2021/04/08 10:03:43;;;;;;;12.03;2.30;;;8.60;97.40;;;;;;1868548;75;21083;-69
2021/04/08 10:06:19;;;;;;;13.40;3.15;;;8.70;98.10;;;;;;1870660;75;21011;-70
2021/04/08 10:08:47;;;;;;;12.93;2.65;;;8.70;97.40;;;;;;1872186;75;21136;-69
2021/04/08 10:11:29;;;;;;;7.72;1.87;;;8.80;97.30;;;;;;1876440;75;21077;-70
2021/04/08 10:13:57;;;;;;;11.60;2.33;;;8.80;96.40;;;;;;1869237;75;21638;-69
2021/04/08 10:16:25;;;;;;;10.13;1.82;;;8.90;97.00;;;;;;1879231;74;21151;-69
2021/04/08 10:19:01;;;;;;;6.33;1.42;;;8.90;95.90;;;;;;1875237;74;21300;-68
2021/04/08 10:21:30;;;;;;;5.50;1.72;;;8.80;96.00;;;;;;1872353;74;21104;-69
2021/04/08 10:23:57;;;;;;;7.85;1.92;;;8.90;95.20;;;;;;1878106;74;21144;-68
2021/04/08 10:26:33;;;;;;;8.05;1.98;;;8.90;95.40;;;;;;1873458;74;21669;-69
2021/04/08 10:29:03;;;;;;;11.18;1.95;;;9.00;95.90;;;;;;1870232;74;21124;-68
2021/04/08 10:31:34;;;;;;;5.05;1.50;;;9.10;94.80;;;;;;1874799;74;21493;-69
2021/04/08 10:34:10;;;;;;;8.05;1.50;;;9.20;95.30;;;;;;1866936;74;21113;-70
2021/04/08 10:36:58;;;;;;;5.47;1.47;;;9.20;95.00;;;;;;1875346;74;21108;-70
2021/04/08 10:39:28;;;;;;;15.10;2.98;;;9.30;94.60;;;;;;1870918;74;21243;-69
2021/04/08 10:42:02;;;;;;;13.08;2.98;;;9.20;94.20;;;;;;1869970;74;21085;-69
2021/04/08 10:44:32;;;;;;;11.38;3.12;;;9.20;94.60;;;;;;1874044;74;21675;-68
2021/04/08 10:47:15;;;;;;;16.62;2.50;;;9.20;95.00;;;;;;1875527;74;21372;-67
2021/04/08 10:49:55;;;;;;;10.10;1.87;;;9.20;95.00;;;;;;1871811;74;21100;-69
2021/04/08 10:52:29;;;;;;;7.45;1.98;;;9.00;95.10;;;;;;1871068;74;21200;-68
2021/04/08 10:55:05;;;;;;;10.28;2.00;;;9.10;95.90;;;;;;1872737;74;21097;-69
2021/04/08 10:57:33;;;;;;;10.10;2.00;;;9.20;95.70;;;;;;1864658;74;21516;-69
2021/04/08 11:00:03;;;;;;;9.33;1.82;;;9.00;94.70;;;;;;1870515;74;21162;-69
2021/04/08 11:02:36;;;;;;;7.37;1.50;;;8.90;94.20;;;;;;1877142;74;21113;-69
2021/04/08 11:05:07;;;;;;;8.48;1.80;;;8.70;94.60;;;;;;1872700;74;21140;-69
2021/04/08 11:07:39;;;;;;;5.90;1.45;;;8.70;94.90;;;;;;1872602;74;21250;-69
2021/04/08 11:10:20;;;;;;;;;;;8.70;94.70;;;;;;1878286;74;21152;-69
2021/04/08 11:12:48;;;;;;;11.35;1.70;;;8.80;94.90;;;;;;1875233;74;20214;-68
2021/04/08 11:15:17;;;;;;;12.35;1.52;;;8.60;94.80;;;;;;1872392;74;22067;-69
2021/04/08 11:17:47;;;;;;;7.75;1.67;;;8.50;95.10;;;;;;1873262;74;21596;-69
2021/04/08 11:20:20;;;;;;;8.93;1.98;;;8.60;95.30;;;;;;1871996;74;21531;-71
2021/04/08 11:22:48;;;;;;;7.87;2.05;;;8.70;94.90;;;;;;1876354;74;21381;-71
2021/04/08 11:25:17;;;;;;;9.03;2.62;;;8.90;95.80;;;;;;1871737;74;21155;-70
2021/04/08 11:27:45;;;;;;;9.45;2.58;;;9.00;94.30;;;;;;1875217;74;21136;-69
2021/04/08 11:30:15;;;;;;;6.10;1.75;;;9.10;93.40;;;;;;1874005;74;21065;-70
2021/04/08 11:32:47;;;;;;;6.25;1.52;;;9.10;92.90;;;;;;1872777;74;21082;-70
2021/04/08 11:35:27;;;;;;;7.47;2.05;;;9.20;93.20;;;;;;1875857;74;21097;-71
2021/04/08 11:38:13;;;;;;;6.40;1.60;;;9.30;92.60;;;;;;1811341;77;21115;-70
2021/04/08 11:40:43;;;;;;;11.88;1.55;;;9.40;92.30;;;;;;1879049;74;21571;-72
2021/04/08 11:43:28;;;;;;;7.80;1.67;;;9.30;92.60;;;;;;1880098;74;21112;-72
2021/04/08 11:46:01;;;;;;;12.47;2.05;;;9.40;92.10;;;;;;1876371;74;21187;-70
2021/04/08 11:48:40;;;;;;;7.85;1.55;;;9.50;91.10;;;;;;1883308;74;21505;-70
2021/04/08 11:51:09;;;;;;;9.45;1.77;;;9.50;91.50;;;;;;1872965;74;21514;-71
2021/04/08 11:53:38;;;;;;;14.13;2.22;;;9.40;90.90;;;;;;1876958;74;21627;-72
2021/04/08 11:56:27;;;;;;;7.78;1.85;;;9.40;91.80;;;;;;1873885;74;21041;-71
2021/04/08 11:59:09;;;;;;;11.90;1.52;;;9.30;90.90;;;;;;1883161;74;21898;-71
2021/04/08 12:01:40;;;;;;;7.08;1.60;;;9.40;92.10;;;;;;1878781;74;21076;-70
2021/04/08 12:04:16;;;;;;;7.45;1.50;;;9.30;91.20;;;;;;1877092;74;21105;-71
2021/04/08 12:06:49;;;;;;;6.45;1.60;;;9.30;91.20;;;;;;1877831;74;21085;-71
2021/04/08 12:09:17;;;;;;;9.20;1.62;;;9.50;91.70;;;;;;1884166;74;21175;-70
2021/04/08 12:11:54;;;;;;;9.60;1.45;;;9.50;89.80;;;;;;1877216;74;21666;-71
2021/04/08 12:14:22;;;;;;;8.28;2.10;;;9.60;90.70;;;;;;1877539;74;21210;-70
2021/04/08 12:17:10;;;;;;;5.92;2.00;;;9.60;91.10;;;;;;1877749;74;21570;-69
2021/04/08 12:19:38;;;;;;;5.97;1.80;;;9.60;91.60;;;;;;1876004;74;21089;-70
2021/04/08 12:22:09;;;;;;;8.65;1.52;;;9.60;91.20;;;;;;1877994;74;21120;-70
2021/04/08 12:24:38;;;;;;;10.20;1.82;;;9.50;90.80;;;;;;1875039;74;21108;-69
2021/04/08 12:27:19;;;;;;;8.13;1.90;;;9.50;91.60;;;;;;1877807;74;21174;-69
2021/04/08 12:29:47;;;;;;;7.28;2.40;;;9.50;90.90;;;;;;1872658;74;21347;-69
2021/04/08 12:32:14;;;;;;;10.53;2.00;;;9.30;90.90;;;;;;1875842;74;21178;-70
2021/04/08 12:34:42;;;;;;;9.50;1.87;;;9.20;91.30;;;;;;1875399;74;21105;-70
2021/04/08 12:37:09;;;;;;;8.08;1.75;;;9.10;91.90;;;;;;1875708;74;21060;-70
2021/04/08 12:39:37;;;;;;;11.08;2.00;;;9.20;92.60;;;;;;1872297;74;21563;-70
2021/04/08 12:42:08;;;;;;;8.10;1.85;;;9.20;91.80;;;;;;1875239;74;21222;-70
2021/04/08 12:44:34;;;;;;;7.40;2.10;;;9.10;91.90;;;;;;1877694;74;21837;-71
2021/04/08 12:47:01;;;;;;;8.65;1.70;;;9.10;91.90;;;;;;1877064;74;21085;-70
2021/04/08 12:49:29;;;;;;;12.25;1.77;;;9.00;92.20;;;;;;1881667;74;21011;-70
2021/04/08 12:51:56;;;;;;;10.08;2.10;;;9.00;92.30;;;;;;1877663;74;21061;-70
2021/04/08 12:54:24;;;;;;;7.92;1.85;;;9.00;92.20;;;;;;1874572;74;21578;-70
2021/04/08 12:56:51;;;;;;;7.67;2.27;;;8.90;91.90;;;;;;1875012;74;21096;-70
2021/04/08 12:59:19;;;;;;;8.85;2.60;;;9.00;92.40;;;;;;1882945;74;21507;-70
2021/04/08 13:01:46;;;;;;;9.60;1.82;;;9.10;92.30;;;;;;1875568;74;21615;-70
2021/04/08 13:04:14;;;;;;;6.15;2.17;;;9.00;91.80;;;;;;1875668;74;21145;-70
2021/04/08 13:06:41;;;;;;;7.92;2.17;;;8.80;92.70;;;;;;1883926;74;21121;-69
2021/04/08 13:09:09;;;;;;;12.00;2.25;;;8.70;92.90;;;;;;1876512;74;21125;-70